createdAt,value
2022-08-17T00:02:27.278Z,98347.06
2022-08-17T00:05:36.657Z,98344.66
2022-08-17T00:08:45.546Z,98338.27
2022-08-17T00:12:41.605Z,98337.55
2022-08-17T00:15:19.996Z,98341.99
2022-08-17T00:18:58.346Z,98351.51
2022-08-17T00:22:32.378Z,98352.69
2022-08-17T00:25:22.851Z,98347.76
2022-08-17T00:28:29.433Z,98342.91
2022-08-17T00:31:39.821Z,98343.79
2022-08-17T00:34:45.959Z,98344.77
2022-08-17T00:37:52.283Z,98346.91
2022-08-17T00:41:00.787Z,98343.86
2022-08-17T00:44:08.743Z,98347.02
2022-08-17T00:47:14.882Z,98348.81
2022-08-17T00:50:21.942Z,98346.70
2022-08-17T00:53:30.767Z,98351.40
2022-08-17T00:56:41.185Z,98350.15
2022-08-17T01:00:03.309Z,98347.21
2022-08-17T01:03:14.180Z,98344.75
2022-08-17T01:06:21.914Z,98342.13
2022-08-17T01:09:29.003Z,98340.64
2022-08-17T01:12:37.526Z,98338.24
2022-08-17T01:15:50.248Z,98335.49
2022-08-17T01:18:59.612Z,98335.89
2022-08-17T01:22:09.408Z,98338.27
2022-08-17T01:25:16.186Z,98338.28
2022-08-17T01:28:52.526Z,98338.23
2022-08-17T01:31:55.302Z,98335.13
2022-08-17T01:35:01.990Z,98335.63
2022-08-17T01:38:09.736Z,98338.45
2022-08-17T01:41:20.217Z,98337.27
2022-08-17T01:44:28.450Z,98335.25
2022-08-17T01:47:36.152Z,98340.54
2022-08-17T01:50:45.464Z,98347.16
2022-08-17T01:53:58.378Z,98348.12
2022-08-17T01:57:04.939Z,98349.22
2022-08-17T02:00:13.806Z,98348.94
2022-08-17T02:03:22.990Z,98349.49
2022-08-17T02:06:29.405Z,98344.12
2022-08-17T02:09:35.627Z,98344.81
2022-08-17T02:12:48.968Z,98348.39
2022-08-17T02:15:55.308Z,98349.77
2022-08-17T02:19:02.159Z,98345.48
2022-08-17T02:22:08.401Z,98347.83
2022-08-17T02:25:17.660Z,98350.52
2022-08-17T02:28:23.914Z,98353.90
2022-08-17T02:31:31.237Z,98354.94
2022-08-17T02:34:37.676Z,98355.75
2022-08-17T02:37:43.831Z,98355.53
2022-08-17T02:40:55.243Z,98360.41
2022-08-17T02:44:01.409Z,98363.98
2022-08-17T02:47:07.858Z,98364.38
2022-08-17T02:50:18.823Z,98366.86
2022-08-17T02:53:25.750Z,98366.83
2022-08-17T02:56:31.990Z,98365.64
2022-08-17T02:59:38.391Z,98364.92
2022-08-17T03:02:46.365Z,98364.80
2022-08-17T03:05:53.433Z,98366.42
2022-08-17T03:08:59.376Z,98361.06
2022-08-17T03:12:08.358Z,98366.90
2022-08-17T03:15:16.784Z,98373.34
2022-08-17T03:18:26.329Z,98376.16
2022-08-17T03:21:32.685Z,98374.19
2022-08-17T03:24:38.898Z,98375.48
2022-08-17T03:27:48.179Z,98377.58
2022-08-17T03:30:56.427Z,98378.66
2022-08-17T03:34:02.631Z,98379.61
2022-08-17T03:37:08.908Z,98377.60
2022-08-17T03:40:15.810Z,98378.09
2022-08-17T03:43:41.931Z,98381.08
2022-08-17T03:47:05.684Z,98379.40
2022-08-17T03:50:34.217Z,98376.63
2022-08-17T03:54:09.874Z,98377.34
2022-08-17T03:57:16.489Z,98379.83
2022-08-17T04:00:22.851Z,98383.73
2022-08-17T04:03:29.031Z,98383.84
2022-08-17T04:06:35.147Z,98385.42
2022-08-17T04:09:43.074Z,98387.96
2022-08-17T04:12:54.660Z,98393.30
2022-08-17T04:16:00.850Z,98397.98
2022-08-17T04:19:07.830Z,98405.73
2022-08-17T04:22:31.766Z,98408.26
2022-08-17T04:25:41.730Z,98410.33
2022-08-17T04:28:48.266Z,98407.70
2022-08-17T04:31:54.605Z,98406.73
2022-08-17T04:35:00.956Z,98409.23
2022-08-17T04:38:07.832Z,98412.23
2022-08-17T04:41:33.350Z,98414.55
2022-08-17T04:44:38.177Z,98413.73
2022-08-17T04:47:44.171Z,98415.66
2022-08-17T04:50:49.402Z,98415.98
2022-08-17T04:54:01.754Z,98418.49
2022-08-17T04:57:08.304Z,98424.84
2022-08-17T05:00:16.181Z,98420.13
2022-08-17T05:03:22.310Z,98418.77
2022-08-17T05:06:29.895Z,98419.85
2022-08-17T05:09:36.024Z,98418.55
2022-08-17T05:12:42.340Z,98420.58
2022-08-17T05:15:49.969Z,98422.55
2022-08-17T05:18:56.712Z,98422.91
2022-08-17T05:22:05.238Z,98425.54
2022-08-17T05:25:12.217Z,98426.05
2022-08-17T05:28:24.216Z,98432.41
2022-08-17T05:31:34.042Z,98433.02
2022-08-17T05:34:40.436Z,98439.27
2022-08-17T05:37:46.665Z,98437.13
2022-08-17T05:40:53.660Z,98440.92
2022-08-17T05:43:59.867Z,98443.19
2022-08-17T05:47:11.451Z,98438.20
2022-08-17T05:50:27.170Z,98436.88
2022-08-17T05:53:44.852Z,98437.48
2022-08-17T05:57:12.754Z,98432.17
2022-08-17T06:00:29.973Z,98437.18
2022-08-17T06:03:45.962Z,98439.98
2022-08-17T06:06:57.774Z,98441.98
2022-08-17T06:10:13.799Z,98441.50
2022-08-17T06:13:25.395Z,98436.33
2022-08-17T06:16:37.610Z,98439.09
2022-08-17T06:19:49.543Z,98434.71
2022-08-17T06:23:04.126Z,98436.23
2022-08-17T06:26:15.987Z,98433.23
2022-08-17T06:29:33.611Z,98432.15
2022-08-17T06:32:41.727Z,98428.86
2022-08-17T06:36:02.882Z,98430.61
2022-08-17T06:39:36.596Z,98430.62
2022-08-17T06:42:59.994Z,98425.48
2022-08-17T06:46:19.205Z,98424.05
2022-08-17T06:49:29.374Z,98432.33
2022-08-17T06:52:47.383Z,98432.49
2022-08-17T06:56:01.364Z,98431.41
2022-08-17T06:59:10.359Z,98435.23
2022-08-17T07:02:20.703Z,98437.83
2022-08-17T07:05:49.673Z,98440.35
2022-08-17T07:09:01.204Z,98450.73
2022-08-17T07:12:16.284Z,98450.35
2022-08-17T07:15:28.760Z,98449.96
2022-08-17T07:18:35.312Z,98450.88
2022-08-17T07:21:55.151Z,98451.70
2022-08-17T07:25:06.358Z,98453.50
2022-08-17T07:28:13.133Z,98446.52
2022-08-17T07:31:19.355Z,98447.29
2022-08-17T07:34:25.500Z,98446.94
2022-08-17T07:37:36.966Z,98443.48
2022-08-17T07:40:45.693Z,98442.84
2022-08-17T07:43:52.966Z,98438.20
2022-08-17T07:47:16.959Z,98439.57
2022-08-17T07:50:31.069Z,98436.61
2022-08-17T07:53:37.260Z,98441.38
2022-08-17T07:56:47.302Z,98440.34
2022-08-17T08:03:32.181Z,98429.23
2022-08-17T08:06:54.615Z,98425.73
2022-08-17T08:10:12.985Z,98431.29
2022-08-17T08:13:28.054Z,98435.11
2022-08-17T08:16:32.487Z,98435.03
2022-08-17T08:19:38.850Z,98434.11
2022-08-17T08:22:53.814Z,98432.81
2022-08-17T08:26:17.972Z,98433.80
2022-08-17T08:29:33.022Z,98435.11
2022-08-17T08:32:55.337Z,98433.66
2022-08-17T08:36:08.986Z,98431.98
2022-08-17T08:39:20.819Z,98432.34
2022-08-17T08:42:33.124Z,98429.77
2022-08-17T08:45:52.479Z,98429.73
2022-08-17T08:49:14.374Z,98425.85
2022-08-17T08:52:34.239Z,98428.56
2022-08-17T08:55:49.689Z,98429.88
2022-08-17T08:59:03.764Z,98434.34
2022-08-17T09:02:35.212Z,98436.39
2022-08-17T09:06:03.004Z,98437.27
2022-08-17T09:09:19.159Z,98435.11
2022-08-17T09:12:38.130Z,98433.73
2022-08-17T09:15:47.485Z,98437.06
2022-08-17T09:19:02.676Z,98435.40
2022-08-17T09:22:25.635Z,98434.58
2022-08-17T09:25:49.966Z,98434.91
2022-08-17T09:29:01.694Z,98436.08
2022-08-17T09:32:17.709Z,98443.54
2022-08-17T09:35:36.579Z,98443.38
2022-08-17T09:38:53.948Z,98443.38
2022-08-17T09:42:07.938Z,98441.52
2022-08-17T09:45:29.324Z,98444.34
2022-08-17T09:48:40.728Z,98443.86
2022-08-17T09:51:51.530Z,98446.45
2022-08-17T09:55:00.231Z,98446.98
2022-08-17T09:58:15.507Z,98440.05
2022-08-17T10:01:31.469Z,98438.05
2022-08-17T10:04:47.951Z,98437.56
2022-08-17T10:08:01.935Z,98440.88
2022-08-17T10:11:18.624Z,98444.20
2022-08-17T10:14:37.305Z,98442.98
2022-08-17T10:18:04.102Z,98435.09
2022-08-17T10:21:29.924Z,98441.02
2022-08-17T10:25:21.808Z,98435.77
2022-08-17T10:28:31.215Z,98432.39
2022-08-17T10:31:44.931Z,98429.45
2022-08-17T10:35:19.027Z,98423.89
2022-08-17T10:38:46.804Z,98422.08
2022-08-17T10:41:57.819Z,98426.25
2022-08-17T10:45:08.289Z,98427.91
2022-08-17T10:48:33.095Z,98428.14
2022-08-17T10:51:41.019Z,98440.21
2022-08-17T11:35:28.595Z,98463.42
2022-08-17T11:38:46.402Z,98456.24
2022-08-17T11:41:58.766Z,98452.96
2022-08-17T11:45:32.383Z,98451.27
2022-08-17T11:49:07.336Z,98453.39
2022-08-17T11:52:32.856Z,98450.82
2022-08-17T11:56:06.501Z,98451.56
2022-08-17T11:59:47.783Z,98448.61
2022-08-17T12:03:39.997Z,98449.11
2022-08-17T12:06:52.663Z,98446.89
2022-08-17T12:10:01.629Z,98450.10
2022-08-17T12:13:13.661Z,98445.17
2022-08-17T12:16:21.830Z,98446.73
2022-08-17T12:19:29.785Z,98447.97
2022-08-17T12:22:46.576Z,98446.52
2022-08-17T12:25:58.695Z,98445.48
2022-08-17T12:29:09.225Z,98440.71
2022-08-17T12:32:34.566Z,98437.88
2022-08-17T12:35:40.839Z,98439.58
2022-08-17T12:39:13.669Z,98441.91
2022-08-17T12:42:31.232Z,98448.92
2022-08-17T12:45:40.385Z,98460.51
2022-08-17T12:48:54.966Z,98454.73
2022-08-17T12:52:12.817Z,98451.66
2022-08-17T12:55:25.226Z,98449.75
2022-08-17T12:58:38.844Z,98447.67
2022-08-17T13:01:46.283Z,98446.63
2022-08-17T13:04:52.568Z,98445.98
2022-08-17T13:08:00.648Z,98443.34
2022-08-17T13:11:09.928Z,98441.86
2022-08-17T13:14:20.498Z,98438.99
2022-08-17T13:17:34.743Z,98435.48
2022-08-17T13:20:40.998Z,98423.88
2022-08-17T13:23:57.932Z,98421.48
2022-08-17T13:27:15.426Z,98415.48
2022-08-17T13:30:28.273Z,98410.95
2022-08-17T13:33:44.977Z,98419.53
2022-08-17T13:36:53.298Z,98422.98
2022-08-17T13:40:03.335Z,98415.92
2022-08-17T13:43:09.843Z,98414.96
2022-08-17T13:46:21.548Z,98412.78
2022-08-17T13:49:48.174Z,98417.08
2022-08-17T13:52:54.831Z,98422.06
2022-08-17T13:56:04.003Z,98424.67
2022-08-17T13:59:13.098Z,98422.04
2022-08-17T14:02:21.422Z,98420.20
2022-08-17T14:05:28.042Z,98420.98
2022-08-17T14:08:34.234Z,98421.09
2022-08-17T14:11:40.437Z,98417.64
2022-08-17T14:14:48.062Z,98420.95
2022-08-17T14:17:54.812Z,98418.13
2022-08-17T14:21:01.316Z,98414.70
2022-08-17T14:24:10.091Z,98415.52
2022-08-17T14:27:18.139Z,98415.83
2022-08-17T14:30:28.838Z,98412.09
2022-08-17T14:33:36.665Z,98408.26
2022-08-17T14:36:48.235Z,98407.39
2022-08-17T14:39:57.118Z,98409.97
2022-08-17T14:43:03.346Z,98412.83
2022-08-17T14:46:12.251Z,98410.36
2022-08-17T14:49:19.855Z,98409.00
2022-08-17T14:52:26.524Z,98402.10
2022-08-17T14:55:32.737Z,98397.26
2022-08-17T14:58:39.360Z,98398.98
2022-08-17T15:01:47.854Z,98397.38
2022-08-17T15:04:54.521Z,98399.72
2022-08-17T15:08:03.234Z,98395.89
2022-08-17T15:11:11.904Z,98400.15
2022-08-17T15:14:20.741Z,98399.46
2022-08-17T15:17:26.973Z,98400.04
2022-08-17T15:20:52.870Z,98404.35
2022-08-17T15:23:59.379Z,98409.13
2022-08-17T15:27:05.924Z,98408.92
2022-08-17T15:30:13.594Z,98401.82
2022-08-17T15:33:22.097Z,98400.78
2022-08-17T15:36:28.598Z,98399.38
2022-08-17T15:39:34.756Z,98400.42
2022-08-17T15:42:41.648Z,98399.64
2022-08-17T15:45:59.674Z,98407.05
2022-08-17T15:49:06.560Z,98406.27
2022-08-17T15:52:20.472Z,98408.35
2022-08-17T15:55:28.095Z,98415.64
2022-08-17T15:58:34.550Z,98421.46
2022-08-17T16:03:14.822Z,98430.93
2022-08-17T16:05:11.408Z,98432.23
2022-08-17T16:08:21.313Z,98445.17
2022-08-17T16:11:28.074Z,98450.58
2022-08-17T16:14:35.265Z,98448.21
2022-08-17T16:17:42.401Z,98445.16
2022-08-17T16:20:48.590Z,98444.44
2022-08-17T16:23:58.397Z,98448.52
2022-08-17T16:27:05.025Z,98448.75
2022-08-17T16:30:19.499Z,98450.48
2022-08-17T16:33:25.667Z,98450.71
2022-08-17T16:36:31.819Z,98448.38
2022-08-17T16:39:39.284Z,98454.59
2022-08-17T16:42:49.296Z,98466.04
2022-08-17T16:45:55.593Z,98468.71
2022-08-17T16:49:02.173Z,98467.49
2022-08-17T16:52:11.282Z,98466.92
2022-08-17T16:55:19.016Z,98463.36
2022-08-17T16:58:25.198Z,98465.00
2022-08-17T17:01:32.053Z,98467.34
2022-08-17T17:04:43.582Z,98463.84
2022-08-17T17:08:03.434Z,98469.38
2022-08-17T17:11:15.990Z,98474.11
2022-08-17T17:14:28.627Z,98475.33
2022-08-17T17:17:38.260Z,98471.88
2022-08-17T17:20:51.169Z,98472.48
2022-08-17T17:24:01.538Z,98475.60
2022-08-17T17:27:29.700Z,98475.26
2022-08-17T17:30:47.105Z,98479.19
2022-08-17T17:33:57.798Z,98481.66
2022-08-17T17:37:09.004Z,98478.65
2022-08-17T17:40:23.734Z,98485.27
2022-08-17T17:43:40.106Z,98484.33
2022-08-17T17:46:50.564Z,98494.29
2022-08-17T17:49:56.750Z,98494.79
2022-08-17T17:53:07.649Z,98496.79
2022-08-17T17:56:43.159Z,98503.10
2022-08-17T17:59:56.824Z,98510.83
2022-08-17T18:03:26.022Z,98508.13
2022-08-17T18:06:45.655Z,98508.87
2022-08-17T18:10:29.506Z,98512.55
2022-08-17T18:13:57.253Z,98518.17
2022-08-17T18:17:04.987Z,98519.20
2022-08-17T18:20:11.587Z,98521.52
2022-08-17T18:23:18.056Z,98522.68
2022-08-17T18:26:50.383Z,98519.52
2022-08-17T18:30:00.236Z,98520.08
2022-08-17T18:33:23.839Z,98520.84
2022-08-17T18:36:33.520Z,98518.89
2022-08-17T18:39:39.890Z,98523.51
2022-08-17T18:42:56.955Z,98521.48
2022-08-17T18:46:29.021Z,98520.19
2022-08-17T18:49:36.474Z,98521.38
2022-08-17T18:52:42.536Z,98525.02
2022-08-17T18:55:48.933Z,98523.52
2022-08-17T18:59:02.240Z,98522.95
2022-08-17T19:02:44.254Z,98521.63
2022-08-17T19:05:53.780Z,98520.20
2022-08-17T19:09:00.921Z,98523.53
2022-08-17T19:12:27.180Z,98527.20
2022-08-17T19:15:41.146Z,98532.21
2022-08-17T19:18:53.612Z,98530.65
2022-08-17T19:22:07.166Z,98532.94
2022-08-17T19:25:21.815Z,98533.77
2022-08-17T19:28:35.057Z,98545.42
2022-08-17T19:31:41.816Z,98544.80
2022-08-17T19:34:48.287Z,98545.70
2022-08-17T19:38:13.010Z,98549.13
2022-08-17T19:41:26.251Z,98547.48
2022-08-17T19:44:56.405Z,98547.98
2022-08-17T19:48:13.714Z,98553.18
2022-08-17T19:51:28.310Z,98560.59
2022-08-17T19:54:39.246Z,98568.25
2022-08-17T19:57:54.123Z,98569.13
2022-08-17T20:01:00.461Z,98571.13
2022-08-17T20:04:14.347Z,98570.21
2022-08-17T20:07:25.062Z,98568.59
2022-08-17T20:10:39.720Z,98574.63
2022-08-17T20:13:51.194Z,98574.83
2022-08-17T20:17:02.462Z,98572.62
2022-08-17T20:20:27.714Z,98568.91
2022-08-17T20:23:47.323Z,98563.44
2022-08-17T20:26:58.439Z,98569.02
2022-08-17T20:30:33.259Z,98575.75
2022-08-17T20:33:40.160Z,98577.21
2022-08-17T20:37:02.282Z,98576.62
2022-08-17T20:40:31.797Z,98577.21
2022-08-17T20:44:07.243Z,98579.79
2022-08-17T20:47:27.031Z,98583.86
2022-08-17T20:50:37.970Z,98587.76
2022-08-17T20:54:07.749Z,98586.66
2022-08-17T20:57:48.721Z,98591.77
2022-08-17T21:01:14.363Z,98593.95
2022-08-17T21:04:48.422Z,98595.63
2022-08-17T21:08:14.147Z,98596.55
2022-08-17T21:12:04.392Z,98593.85
2022-08-17T21:15:28.869Z,98591.81
2022-08-17T21:18:42.644Z,98591.52
2022-08-17T21:22:02.002Z,98589.88
2022-08-17T21:25:22.200Z,98590.04
2022-08-17T21:28:37.636Z,98586.94
2022-08-17T21:32:23.733Z,98584.55
2022-08-17T21:35:47.906Z,98579.70
2022-08-17T21:39:01.976Z,98580.91
2022-08-17T21:42:10.524Z,98577.97
2022-08-17T21:45:23.972Z,98581.90
2022-08-17T21:48:32.387Z,98583.97
2022-08-17T21:51:44.938Z,98576.99
2022-08-17T21:54:56.246Z,98582.14
2022-08-17T21:58:13.896Z,98586.99
2022-08-17T22:01:27.289Z,98583.59
2022-08-17T22:04:35.779Z,98586.80
2022-08-17T22:07:44.557Z,98584.16
2022-08-17T22:10:52.631Z,98579.03
2022-08-17T22:14:05.814Z,98570.76
2022-08-17T22:17:19.312Z,98569.65
2022-08-17T22:20:25.827Z,98564.81
2022-08-17T22:23:52.771Z,98561.70
2022-08-17T22:27:07.702Z,98553.28
2022-08-17T22:30:20.947Z,98546.39
2022-08-17T22:33:40.038Z,98542.52
2022-08-17T22:36:46.338Z,98544.56
2022-08-17T22:40:01.018Z,98548.85
2022-08-17T22:43:13.015Z,98552.58
2022-08-17T22:46:21.378Z,98546.44
2022-08-17T22:49:38.795Z,98544.59
2022-08-17T22:53:21.076Z,98539.80
2022-08-17T22:56:45.793Z,98538.17
2022-08-17T22:59:55.199Z,98540.37
2022-08-17T23:03:12.405Z,98537.35
2022-08-17T23:06:18.672Z,98539.65
2022-08-17T23:09:24.910Z,98548.13
2022-08-17T23:12:31.101Z,98556.35
2022-08-17T23:15:37.999Z,98552.56
2022-08-17T23:18:44.507Z,98555.83
2022-08-17T23:21:55.591Z,98564.22
2022-08-17T23:25:01.814Z,98562.27
2022-08-17T23:28:09.365Z,98563.83
2022-08-17T23:31:19.853Z,98558.55
2022-08-17T23:34:32.225Z,98552.35
2022-08-17T23:37:39.247Z,98553.08
2022-08-17T23:40:45.458Z,98545.83
2022-08-17T23:43:53.783Z,98545.46
2022-08-17T23:47:00.371Z,98549.17
2022-08-17T23:50:07.187Z,98558.45
2022-08-17T23:53:13.396Z,98560.71
2022-08-17T23:56:24.591Z,98556.09
2022-08-17T23:59:31.009Z,98561.65
